Time;durP1;ratioP1;P1;durP2;ratioP2;P2;SDS_P1;SDS_P2;PMS_P1;PMS_P2;Temp;Humidity;BMP_temperature;BMP_pressure;BME280_temperature;BME280_humidity;BME280_pressure;Samples;Min_cycle;Max_cycle;Signal;HPM_P1;HPM_P2
2021/07/21 00:01:08;;;;;;;20.43;16.32;;;;;;;21.80;97.79;98996.23;1690458;83;21209;-70
2021/07/21 00:03:34;;;;;;;18.25;13.68;;;;;;;21.92;97.16;99001.14;1719407;83;21027;-70
2021/07/21 00:06:01;;;;;;;25.70;17.65;;;;;;;21.95;95.14;99004.61;1724754;82;22870;-71
2021/07/21 00:08:27;;;;;;;21.95;17.55;;;;;;;21.72;96.27;99000.69;1740688;80;20999;-72
2021/07/21 00:13:27;;;;;;;24.98;14.23;;;;;;;21.50;98.08;99006.55;1752999;80;21127;-72
2021/07/21 00:13:28;;;;;;;21.12;16.05;;;;;;;21.35;98.55;98998.42;1729251;82;21551;-73
2021/07/21 00:18:45;;;;;;;28.10;17.23;;;;;;;21.34;98.52;98996.84;1750605;82;21101;-73
2021/07/21 00:21:03;;;;;;;18.40;14.03;;;;;;;21.38;98.20;98994.23;1749183;82;21542;-72
2021/07/21 00:23:31;;;;;;;25.32;18.95;;;;;;;21.43;97.60;98992.64;1720022;83;21523;-72
2021/07/21 00:25:57;;;;;;;21.50;15.78;;;;;;;21.50;97.29;98984.09;1706527;82;22156;-70
2021/07/21 00:28:24;;;;;;;20.27;14.87;;;;;;;21.60;96.70;98980.92;1750758;81;21550;-74
2021/07/21 00:30:51;;;;;;;22.25;17.25;;;;;;;21.64;95.90;98981.04;1750503;82;21929;-80
2021/07/21 00:33:18;;;;;;;18.12;13.15;;;;;;;21.71;96.39;98977.98;1750416;81;21123;-73
2021/07/21 00:35:45;;;;;;;17.07;14.00;;;;;;;21.81;95.94;98981.41;1750160;82;21559;-76
2021/07/21 00:38:12;;;;;;;19.85;14.00;;;;;;;21.90;95.88;98983.47;1710505;82;20955;-72
2021/07/21 00:40:39;;;;;;;24.80;17.65;;;;;;;21.94;95.71;98984.41;1686302;83;20951;-72
2021/07/21 00:43:06;;;;;;;21.23;16.40;;;;;;;21.48;97.40;98983.66;1712294;82;21520;-72
2021/07/21 00:45:33;;;;;;;19.60;15.78;;;;;;;21.03;99.22;98990.42;1711839;83;21095;-75
2021/07/21 00:47:59;;;;;;;23.50;16.80;;;;;;;20.72;100.00;98976.40;1662594;84;21031;-73
2021/07/21 00:50:25;;;;;;;22.32;16.55;;;;;;;20.52;100.00;98976.62;1633949;86;21040;-73
2021/07/21 00:52:52;;;;;;;22.17;15.43;;;;;;;20.47;100.00;98976.83;1634135;86;21008;-69
2021/07/21 00:55:20;;;;;;;15.55;13.88;;;;;;;20.51;100.00;98985.95;1690364;84;21042;-68
2021/07/21 00:57:48;;;;;;;16.45;14.20;;;;;;;20.62;100.00;98983.06;1691619;84;21536;-71
2021/07/21 01:00:17;;;;;;;19.90;15.70;;;;;;;20.70;100.00;98984.92;1692346;84;21528;-70
2021/07/21 01:02:51;;;;;;;20.25;14.47;;;;;;;20.80;100.00;98985.09;1688842;84;21044;-72
2021/07/21 01:05:27;;;;;;;21.05;15.23;;;;;;;20.88;100.00;98986.38;1666214;84;21023;-71
2021/07/21 01:07:54;;;;;;;20.65;15.40;;;;;;;20.97;100.00;98988.22;1664332;84;21279;-72
2021/07/21 01:10:26;;;;;;;24.65;13.65;;;;;;;21.03;100.00;98980.86;1633917;86;21000;-72
2021/07/21 01:13:00;;;;;;;;;;;;;;;21.11;100.00;98976.42;1680550;84;20908;-70
2021/07/21 01:15:47;;;;;;;15.78;13.53;;;;;;;21.19;100.00;98976.97;1675273;84;20185;-72
2021/07/21 01:18:23;;;;;;;16.45;12.98;;;;;;;21.24;100.00;98975.38;1663776;84;21550;-76
2021/07/21 01:21:23;;;;;;;20.15;14.70;;;;;;;21.26;100.00;98977.20;1661692;85;21265;-75
2021/07/21 01:23:58;;;;;;;16.52;13.58;;;;;;;21.29;99.64;98979.27;1679074;84;21126;-77
2021/07/21 01:26:27;;;;;;;20.27;14.43;;;;;;;21.22;96.54;98972.17;1686748;84;20911;-75
2021/07/21 01:28:56;;;;;;;21.00;14.63;;;;;;;21.02;97.88;98970.24;1689371;84;21039;-75
2021/07/21 01:31:28;;;;;;;17.95;13.83;;;;;;;20.83;98.51;98966.08;1659084;86;21067;-77
2021/07/21 01:33:56;;;;;;;16.60;13.20;;;;;;;20.78;98.15;98970.94;1659275;86;21246;-81
2021/07/21 01:36:39;;;;;;;16.55;13.25;;;;;;;20.82;97.35;98966.41;1635409;84;21122;-75
2021/07/21 01:39:12;;;;;;;16.80;13.48;;;;;;;20.95;97.19;98963.97;1657169;84;21500;-78
2021/07/21 01:41:45;;;;;;;17.47;12.87;;;;;;;20.89;95.16;98960.64;1676374;85;21508;-73
2021/07/21 01:44:19;;;;;;;19.48;14.60;;;;;;;20.92;93.82;98961.89;1677588;84;21046;-71
2021/07/21 01:46:49;;;;;;;17.73;14.60;;;;;;;20.92;92.80;98952.33;1682925;84;21119;-71
2021/07/21 01:49:17;;;;;;;20.32;15.40;;;;;;;20.84;95.22;98951.28;1680726;84;21040;-71
2021/07/21 01:51:45;;;;;;;22.05;16.17;;;;;;;20.73;96.28;98945.98;1680740;85;21020;-73
2021/07/21 01:54:11;;;;;;;20.25;13.60;;;;;;;20.69;98.67;98945.62;1657315;85;21055;-71
2021/07/21 01:56:43;;;;;;;23.15;15.58;;;;;;;20.69;99.79;98945.62;1647278;85;21056;-70
2021/07/21 01:59:09;;;;;;;16.55;14.63;;;;;;;20.75;99.22;98950.56;1659016;86;21056;-74
2021/07/21 02:01:38;;;;;;;18.07;16.15;;;;;;;20.75;98.86;98953.30;1650919;85;21016;-71
2021/07/21 02:04:07;;;;;;;19.42;14.23;;;;;;;20.76;98.95;98948.06;1668282;86;21144;-69
2021/07/21 02:06:34;;;;;;;22.65;17.90;;;;;;;20.81;99.24;98948.42;1678044;84;21087;-68
2021/07/21 02:09:04;;;;;;;37.38;17.92;;;;;;;20.69;99.98;98959.28;1690606;84;20956;-70
2021/07/21 02:11:31;;;;;;;19.70;16.85;;;;;;;20.60;100.00;98950.36;1690251;84;21081;-71
2021/07/21 02:13:59;;;;;;;22.95;17.17;;;;;;;20.46;100.00;98964.30;1690282;84;20944;-71
2021/07/21 02:16:37;;;;;;;23.40;18.45;;;;;;;20.39;100.00;98962.08;1665068;84;20995;-71
2021/07/21 02:19:06;;;;;;;24.63;17.55;;;;;;;20.33;100.00;98958.53;1699539;84;21090;-70
2021/07/21 02:21:41;;;;;;;24.50;17.25;;;;;;;20.38;100.00;98962.43;1695956;84;21051;-71
2021/07/21 02:24:08;;;;;;;21.80;17.95;;;;;;;20.42;100.00;98953.80;1673369;84;22238;-71
2021/07/21 02:26:38;;;;;;;22.10;17.40;;;;;;;20.43;100.00;98955.41;1682486;84;21030;-72
2021/07/21 02:29:06;;;;;;;28.80;18.35;;;;;;;20.44;99.11;98962.45;1658058;84;21044;-71
2021/07/21 02:32:03;;;;;;;25.12;19.55;;;;;;;20.49;98.79;98963.61;1697778;84;20959;-72
2021/07/21 02:34:30;;;;;;;25.25;19.40;;;;;;;20.35;97.66;98962.52;1699832;84;21039;-71
2021/07/21 02:36:58;;;;;;;21.62;18.45;;;;;;;20.19;97.81;98962.81;1682880;84;21829;-71
2021/07/21 02:39:24;;;;;;;23.45;19.62;;;;;;;20.08;98.24;98966.28;1643450;84;20952;-70
2021/07/21 02:41:53;;;;;;;27.45;19.90;;;;;;;19.97;98.57;98962.55;1699827;84;21568;-69
2021/07/21 02:44:20;;;;;;;24.50;19.42;;;;;;;19.87;99.30;98971.11;1699410;84;21524;-71
2021/07/21 02:46:48;;;;;;;27.77;20.23;;;;;;;19.89;98.48;98972.16;1693846;83;21543;-71
2021/07/21 02:49:19;;;;;;;23.18;18.67;;;;;;;19.84;98.58;98977.80;1698382;84;39889;-72
2021/07/21 02:51:51;;;;;;;23.30;15.75;;;;;;;19.82;98.52;98979.48;1692642;84;21055;-72
2021/07/21 02:54:39;;;;;;;26.20;18.20;;;;;;;19.81;98.44;98981.97;1697768;84;21004;-72
2021/07/21 02:57:14;;;;;;;25.27;18.45;;;;;;;19.84;98.44;98992.81;1674284;84;20996;-72
2021/07/21 02:59:48;;;;;;;30.17;19.67;;;;;;;19.81;98.10;98979.23;1698538;84;21012;-71
2021/07/21 03:02:22;;;;;;;28.32;21.33;;;;;;;19.78;98.77;98980.47;1665531;84;21080;-71
2021/07/21 03:04:50;;;;;;;26.35;20.68;;;;;;;19.66;99.67;98997.54;1670717;85;20947;-72
2021/07/21 03:07:21;;;;;;;27.15;21.70;;;;;;;19.54;100.00;98980.48;1688345;85;20924;-72
2021/07/21 03:09:49;;;;;;;34.38;20.20;;;;;;;19.49;100.00;98986.67;1614489;85;21044;-73
2021/07/21 03:12:17;;;;;;;39.03;23.55;;;;;;;19.39;100.00;98976.88;1633418;86;21065;-72
2021/07/21 03:14:58;;;;;;;31.62;21.70;;;;;;;19.38;100.00;98978.55;1673628;84;21192;-71
2021/07/21 03:17:25;;;;;;;26.82;18.35;;;;;;;19.41;100.00;98979.29;1691713;81;20976;-72
2021/07/21 03:19:53;;;;;;;24.15;18.73;;;;;;;19.39;100.00;98999.25;1720889;82;20970;-71
2021/07/21 03:22:23;;;;;;;24.90;19.90;;;;;;;19.39;100.00;98993.24;1750387;81;21019;-71
2021/07/21 03:24:52;;;;;;;26.80;20.90;;;;;;;19.42;100.00;99002.16;1745021;82;20940;-70
2021/07/21 03:27:20;;;;;;;29.57;22.15;;;;;;;19.44;100.00;98989.57;1713762;82;21263;-73
2021/07/21 03:30:11;;;;;;;28.67;20.70;;;;;;;19.51;100.00;98993.41;1750164;82;21480;-71
2021/07/21 03:32:42;;;;;;;28.15;20.02;;;;;;;19.58;100.00;98995.06;1746418;82;21497;-71
2021/07/21 03:35:11;;;;;;;32.78;21.80;;;;;;;19.62;100.00;98990.31;1740717;82;21504;-72
2021/07/21 03:37:43;;;;;;;26.42;20.05;;;;;;;19.66;100.00;98992.09;1723531;81;22159;-71
2021/07/21 03:40:11;;;;;;;31.37;20.80;;;;;;;19.79;100.00;98996.52;1740192;82;21102;-71
2021/07/21 03:42:57;;;;;;;30.27;20.62;;;;;;;19.91;100.00;98999.91;1718938;83;21502;-69
2021/07/21 03:45:28;;;;;;;25.55;19.85;;;;;;;20.06;100.00;98998.55;1701884;81;21035;-72
2021/07/21 03:47:55;;;;;;;22.15;19.10;;;;;;;20.06;100.00;98998.55;1698427;83;21020;-72
2021/07/21 03:50:23;;;;;;;20.52;16.60;;;;;;;20.08;99.94;99002.57;1739735;82;21087;-73
2021/07/21 03:52:52;;;;;;;24.57;19.85;;;;;;;20.08;99.17;99012.13;1746934;82;21282;-73
2021/07/21 03:55:21;;;;;;;25.12;18.75;;;;;;;19.97;99.11;99020.44;1747327;82;20966;-71
2021/07/21 03:58:01;;;;;;;25.15;19.73;;;;;;;19.97;99.99;99021.80;1744437;82;21479;-72
2021/07/21 04:00:29;;;;;;;26.82;19.90;;;;;;;20.00;100.00;99029.33;1744061;82;21033;-72
2021/07/21 04:02:58;;;;;;;32.55;21.33;;;;;;;20.02;100.00;99032.55;1721346;81;21050;-72
2021/07/21 04:05:27;;;;;;;19.27;16.35;;;;;;;20.03;100.00;99044.51;1693026;83;21143;-72
2021/07/21 04:07:57;;;;;;;22.17;18.17;;;;;;;20.08;100.00;99052.27;1668677;86;20988;-73
2021/07/21 04:10:24;;;;;;;23.77;18.73;;;;;;;20.08;99.89;99050.34;1668512;85;21588;-74
2021/07/21 04:12:52;;;;;;;23.77;18.77;;;;;;;20.10;99.93;99054.90;1649424;86;21026;-72
2021/07/21 04:15:21;;;;;;;19.40;16.77;;;;;;;20.13;99.68;99053.45;1681571;84;21073;-74
2021/07/21 04:17:51;;;;;;;23.95;17.95;;;;;;;20.08;99.28;99057.17;1682381;84;21041;-71
2021/07/21 04:20:19;;;;;;;24.65;18.25;;;;;;;20.02;99.38;99055.19;1690596;84;21132;-71
2021/07/21 04:22:47;;;;;;;24.20;18.00;;;;;;;20.01;99.88;99058.23;1663071;83;21021;-73
2021/07/21 04:25:14;;;;;;;20.62;16.70;;;;;;;20.00;100.00;99058.80;1685418;84;21091;-73
2021/07/21 04:27:41;;;;;;;24.02;19.27;;;;;;;19.97;100.00;99055.36;1710586;83;21001;-72
2021/07/21 04:30:15;;;;;;;24.52;17.30;;;;;;;19.91;100.00;99059.39;1710206;84;21107;-73
2021/07/21 04:32:43;;;;;;;24.40;17.57;;;;;;;19.82;100.00;99057.26;1710176;82;21543;-72
2021/07/21 04:35:11;;;;;;;22.70;18.42;;;;;;;19.78;100.00;99059.04;1693513;83;20979;-73
2021/07/21 04:37:40;;;;;;;22.02;17.80;;;;;;;19.73;100.00;99056.48;1675638;83;20948;-72
2021/07/21 04:40:11;;;;;;;20.00;16.07;;;;;;;19.73;100.00;99055.69;1696041;84;21039;-71
2021/07/21 04:42:39;;;;;;;18.12;15.60;;;;;;;19.77;100.00;99059.36;1690135;84;21134;-70
2021/07/21 04:45:09;;;;;;;23.73;17.40;;;;;;;19.73;100.00;99063.87;1663801;85;21007;-72
2021/07/21 04:47:36;;;;;;;21.20;17.30;;;;;;;19.70;100.00;99065.33;1669948;83;21087;-72
2021/07/21 04:50:13;;;;;;;19.30;14.05;;;;;;;19.70;100.00;99060.44;1670926;84;20992;-72
2021/07/21 04:52:40;;;;;;;21.55;16.27;;;;;;;19.76;100.00;99064.02;1667979;85;21065;-71
2021/07/21 04:55:07;;;;;;;21.57;14.58;;;;;;;19.81;99.52;99063.84;1643423;86;22010;-71
2021/07/21 04:57:34;;;;;;;20.57;15.00;;;;;;;19.80;98.36;99066.35;1675681;84;20963;-72
2021/07/21 05:00:05;;;;;;;14.90;13.28;;;;;;;19.73;97.42;99064.67;1714151;83;21015;-73
2021/07/21 05:02:33;;;;;;;16.45;13.25;;;;;;;19.63;97.21;99056.83;1704561;83;21091;-72
2021/07/21 05:05:02;;;;;;;18.95;13.83;;;;;;;19.55;97.69;99058.47;1682276;84;21016;-72
2021/07/21 05:07:30;;;;;;;16.70;12.75;;;;;;;19.50;98.01;99053.73;1685380;85;21214;-73
2021/07/21 05:09:58;;;;;;;18.60;14.20;;;;;;;19.48;97.55;99049.96;1688932;85;20936;-73
2021/07/21 05:12:24;;;;;;;14.10;11.68;;;;;;;19.55;97.72;99045.39;1674203;83;20916;-72
2021/07/21 05:14:53;;;;;;;16.95;13.38;;;;;;;19.55;97.72;99045.39;1717634;83;21019;-73
2021/07/21 05:17:34;;;;;;;16.10;11.20;;;;;;;19.50;97.96;99038.73;1719132;83;21024;-73
2021/07/21 05:20:06;;;;;;;15.20;12.30;;;;;;;19.43;98.10;99036.46;1719727;83;21012;-73
2021/07/21 05:22:34;;;;;;;14.07;10.72;;;;;;;19.42;98.38;99032.72;1714632;83;21074;-73
2021/07/21 05:25:00;;;;;;;15.58;12.93;;;;;;;19.40;96.49;99030.86;1710228;83;20929;-73
2021/07/21 05:27:30;;;;;;;16.55;11.35;;;;;;;19.40;96.49;99030.86;1715172;83;21079;-72
2021/07/21 05:29:57;;;;;;;16.85;11.10;;;;;;;19.41;97.54;99029.74;1692618;83;21056;-74
2021/07/21 05:32:25;;;;;;;15.15;11.70;;;;;;;19.44;98.06;99032.64;1714915;83;21325;-74
2021/07/21 05:34:56;;;;;;;14.85;12.23;;;;;;;19.46;96.93;99033.70;1698234;83;21596;-74
2021/07/21 05:37:24;;;;;;;20.12;11.15;;;;;;;19.46;96.93;99033.70;1689497;83;21044;-73
2021/07/21 05:39:54;;;;;;;14.43;10.20;;;;;;;19.52;96.91;99032.37;1685679;84;21020;-72
2021/07/21 05:42:23;;;;;;;13.40;10.55;;;;;;;19.59;95.86;99036.23;1685336;84;21063;-73
2021/07/21 05:44:49;;;;;;;16.27;11.33;;;;;;;19.63;94.03;99041.83;1687692;83;21193;-72
2021/07/21 05:47:18;;;;;;;13.40;9.23;;;;;;;19.70;94.18;99040.78;1704080;83;21508;-74
2021/07/21 05:49:44;;;;;;;13.70;9.55;;;;;;;19.72;92.38;99042.60;1663710;85;21603;-71
2021/07/21 05:52:13;;;;;;;14.83;10.28;;;;;;;19.76;91.26;99042.77;1662339;85;21141;-73
2021/07/21 05:54:41;;;;;;;15.38;11.33;;;;;;;19.81;91.29;99039.27;1690204;83;21060;-73
2021/07/21 05:57:09;;;;;;;18.35;10.30;;;;;;;19.81;90.85;99035.74;1706008;83;21455;-74
2021/07/21 05:59:37;;;;;;;10.98;8.90;;;;;;;19.84;89.94;99041.37;1683761;83;21089;-73
2021/07/21 06:02:04;;;;;;;16.93;9.80;;;;;;;19.93;89.65;99046.23;1685328;84;21621;-72
2021/07/21 06:04:31;;;;;;;12.95;9.35;;;;;;;19.93;89.65;99046.23;1659378;85;21012;-72
2021/07/21 06:07:18;;;;;;;13.58;9.23;;;;;;;20.02;88.87;99048.36;1648824;86;21094;-71
2021/07/21 06:09:59;;;;;;;16.45;11.18;;;;;;;20.08;88.08;99048.18;1622770;86;21128;-72
2021/07/21 06:12:27;;;;;;;14.90;10.65;;;;;;;20.12;87.70;99045.02;1689785;83;21035;-72
2021/07/21 06:14:53;;;;;;;21.15;11.15;;;;;;;20.14;86.58;99052.34;1668535;84;21046;-71
2021/07/21 06:17:19;;;;;;;20.25;10.78;;;;;;;20.14;86.32;99038.69;1692780;83;20999;-72
2021/07/21 06:19:49;;;;;;;20.27;13.25;;;;;;;20.17;86.21;99038.02;1684616;83;21087;-72
2021/07/21 06:22:18;;;;;;;15.58;12.20;;;;;;;20.19;86.48;99051.56;1719666;83;21936;-71
2021/07/21 06:24:49;;;;;;;20.90;12.43;;;;;;;20.21;86.32;99050.68;1692820;83;20961;-71
2021/07/21 06:27:18;;;;;;;14.38;9.98;;;;;;;20.25;85.44;99045.35;1694493;83;21025;-72
2021/07/21 06:29:46;;;;;;;14.98;9.25;;;;;;;20.26;84.95;99051.86;1707672;83;21071;-70
2021/07/21 06:32:12;;;;;;;15.63;9.13;;;;;;;20.27;85.25;99045.84;1707078;83;21013;-69
2021/07/21 06:34:39;;;;;;;17.02;10.75;;;;;;;20.31;85.28;99054.44;1656381;85;21179;-71
2021/07/21 06:37:12;;;;;;;12.37;8.88;;;;;;;20.30;85.85;99050.09;1674045;84;20986;-70
2021/07/21 06:39:38;;;;;;;10.53;9.28;;;;;;;20.33;86.52;99056.29;1661659;83;21545;-69
2021/07/21 06:42:05;;;;;;;12.73;8.25;;;;;;;20.36;85.69;99054.25;1712928;83;21563;-70
2021/07/21 06:44:32;;;;;;;13.60;9.10;;;;;;;20.47;87.71;99049.78;1690757;84;21059;-71
2021/07/21 06:47:03;;;;;;;16.15;9.68;;;;;;;20.61;86.80;99053.87;1667487;83;21063;-70
2021/07/21 06:49:31;;;;;;;12.85;8.83;;;;;;;20.76;86.19;99056.02;1706503;83;21540;-70
2021/07/21 06:51:58;;;;;;;13.53;9.65;;;;;;;20.84;83.84;99060.62;1689376;83;20988;-70
2021/07/21 06:54:26;;;;;;;13.20;10.20;;;;;;;20.84;83.49;99059.25;1706978;83;21015;-68
2021/07/21 06:57:11;;;;;;;12.85;8.50;;;;;;;20.87;82.90;99054.47;1693341;83;21020;-70
2021/07/21 06:59:56;;;;;;;9.75;8.70;;;;;;;20.89;83.11;99066.45;1717888;83;21050;-69
2021/07/21 07:02:41;;;;;;;11.20;8.20;;;;;;;20.94;83.21;99054.52;1698886;83;21038;-69
2021/07/21 07:05:12;;;;;;;12.18;8.90;;;;;;;21.03;83.44;99055.24;1706119;83;21581;-69
2021/07/21 07:07:57;;;;;;;9.38;8.13;;;;;;;21.14;82.27;99061.95;1708802;83;21068;-69
2021/07/21 07:10:41;;;;;;;;;;;;;;;21.24;82.04;99059.61;1596341;88;21147;-69
2021/07/21 07:13:07;;;;;;;18.65;9.45;;;;;;;21.38;80.67;99055.22;1687410;83;23441;-69
2021/07/21 07:15:35;;;;;;;17.90;9.50;;;;;;;21.57;81.74;99067.02;1722676;82;21697;-70
2021/07/21 07:18:02;;;;;;;14.98;8.40;;;;;;;21.80;80.45;99067.41;1722471;83;20995;-69
2021/07/21 07:20:28;;;;;;;10.48;8.75;;;;;;;21.90;77.94;99075.20;1714013;83;21000;-70
2021/07/21 07:22:54;;;;;;;16.73;8.98;;;;;;;21.88;77.78;99073.35;1720537;83;21019;-70
2021/07/21 07:25:21;;;;;;;13.53;9.33;;;;;;;21.86;78.59;99066.06;1722590;82;21251;-70
2021/07/21 07:27:47;;;;;;;13.28;8.75;;;;;;;21.87;78.50;99072.55;1697163;83;21658;-70
2021/07/21 07:30:14;;;;;;;10.53;8.58;;;;;;;21.85;78.31;99072.67;1698733;83;20988;-70
2021/07/21 07:32:41;;;;;;;14.35;8.93;;;;;;;21.85;79.04;99063.89;1716023;83;20996;-70
2021/07/21 07:35:09;;;;;;;11.00;8.63;;;;;;;21.86;79.00;99072.34;1722457;82;21048;-70
2021/07/21 07:37:35;;;;;;;14.30;9.28;;;;;;;21.85;79.49;99067.20;1722336;83;21140;-70
2021/07/21 07:40:03;;;;;;;12.35;8.93;;;;;;;21.91;80.52;99072.13;1697584;83;20935;-69
2021/07/21 07:42:29;;;;;;;10.93;8.75;;;;;;;22.00;79.76;99069.31;1713912;82;21082;-70
2021/07/21 07:44:56;;;;;;;15.48;10.35;;;;;;;22.07;79.84;99075.01;1687931;83;21009;-69
2021/07/21 07:47:22;;;;;;;17.07;10.85;;;;;;;22.05;78.77;99065.78;1710434;83;21561;-70
2021/07/21 07:49:48;;;;;;;13.53;10.23;;;;;;;22.09;79.68;99071.37;1710492;83;21826;-70
2021/07/21 07:52:15;;;;;;;16.25;10.25;;;;;;;22.12;79.42;99069.31;1699937;83;21156;-70
2021/07/21 07:54:41;;;;;;;14.10;9.60;;;;;;;22.16;79.34;99072.39;1677795;83;21019;-70
2021/07/21 07:57:07;;;;;;;16.05;10.00;;;;;;;22.20;77.56;99064.31;1722433;82;21044;-70
2021/07/21 07:59:33;;;;;;;14.20;9.50;;;;;;;22.24;77.84;99075.38;1722452;83;21024;-70
2021/07/21 08:02:00;;;;;;;12.35;9.45;;;;;;;22.26;76.38;99079.36;1717033;83;21097;-70
2021/07/21 08:04:26;;;;;;;12.93;8.73;;;;;;;22.28;76.52;99075.72;1702967;82;21532;-70
2021/07/21 08:06:52;;;;;;;12.25;9.05;;;;;;;22.26;76.28;99072.52;1694130;84;21663;-69
2021/07/21 08:09:19;;;;;;;12.78;10.08;;;;;;;22.36;76.29;99073.44;1720620;82;21591;-70
2021/07/21 08:11:52;;;;;;;11.53;9.25;;;;;;;22.54;75.50;99074.79;1748890;81;21030;-71
2021/07/21 08:14:18;;;;;;;13.95;9.35;;;;;;;22.73;73.24;99083.05;1748681;82;21078;-70
2021/07/21 08:16:47;;;;;;;18.32;9.45;;;;;;;22.86;72.38;99076.39;1690332;83;21014;-70
2021/07/21 08:19:13;;;;;;;10.48;8.15;;;;;;;22.91;72.10;99079.70;1636595;86;21346;-70
2021/07/21 08:21:40;;;;;;;13.80;7.45;;;;;;;22.89;72.71;99081.98;1658075;85;21020;-70
2021/07/21 08:24:07;;;;;;;9.88;8.25;;;;;;;22.90;73.15;99081.41;1716942;83;21045;-70
2021/07/21 08:26:33;;;;;;;13.40;7.37;;;;;;;22.88;70.93;99100.94;1717075;83;21247;-70
2021/07/21 08:28:59;;;;;;;9.43;7.50;;;;;;;22.85;70.53;99095.36;1716959;83;20974;-70
2021/07/21 08:31:26;;;;;;;9.63;7.28;;;;;;;22.80;70.04;99090.11;1676420;83;21059;-70
2021/07/21 08:33:52;;;;;;;13.45;8.58;;;;;;;22.76;70.43;99090.58;1716482;83;21046;-70
2021/07/21 08:36:19;;;;;;;12.15;7.72;;;;;;;22.73;70.60;99092.65;1717407;83;20999;-69
2021/07/21 08:38:45;;;;;;;7.83;6.72;;;;;;;22.73;71.15;99104.41;1716982;83;21244;-69
2021/07/21 08:41:28;;;;;;;8.45;7.50;;;;;;;22.75;70.95;99093.88;1690261;83;21043;-69
2021/07/21 08:43:49;;;;;;;11.30;7.35;;;;;;;22.79;71.46;99098.90;1678415;85;21516;-68
2021/07/21 08:46:15;;;;;;;10.00;8.03;;;;;;;22.89;71.20;99099.80;1676860;85;21485;-70
2021/07/21 08:48:42;;;;;;;12.43;8.48;;;;;;;22.99;71.06;99092.47;1688851;84;21054;-69
2021/07/21 08:51:10;;;;;;;12.63;8.05;;;;;;;23.09;70.45;99101.36;1729795;82;23319;-70
2021/07/21 08:53:37;;;;;;;13.28;8.95;;;;;;;23.18;69.50;99109.68;1718959;82;20936;-69
2021/07/21 08:56:05;;;;;;;10.03;8.05;;;;;;;23.20;68.76;99103.28;1748816;82;21034;-70
2021/07/21 08:58:31;;;;;;;14.38;7.05;;;;;;;23.22;69.42;99102.91;1729955;81;21051;-72
2021/07/21 09:00:57;;;;;;;11.70;7.37;;;;;;;23.26;67.03;99102.47;1734472;82;20993;-70
2021/07/21 09:03:24;;;;;;;11.45;7.35;;;;;;;23.22;67.34;99104.29;1732988;81;21224;-72
2021/07/21 09:05:51;;;;;;;10.70;7.45;;;;;;;23.21;67.43;99107.63;1750004;81;20931;-71
2021/07/21 09:08:18;;;;;;;11.60;7.83;;;;;;;23.16;67.42;99101.02;1731645;81;21512;-69
2021/07/21 09:10:45;;;;;;;13.35;7.58;;;;;;;23.15;67.52;99104.90;1718371;82;21020;-70
2021/07/21 09:13:13;;;;;;;8.88;7.05;;;;;;;23.19;67.35;99096.20;1694863;83;21086;-74
2021/07/21 09:15:42;;;;;;;9.20;7.22;;;;;;;23.23;67.83;99101.20;1718732;83;21600;-72
2021/07/21 09:18:14;;;;;;;10.63;7.92;;;;;;;23.28;68.00;99097.41;1718863;83;21331;-73
2021/07/21 09:20:49;;;;;;;11.63;7.08;;;;;;;23.35;67.63;99095.70;1729856;81;20978;-69
2021/07/21 09:23:15;;;;;;;8.93;6.58;;;;;;;23.43;65.82;99107.09;1745459;82;21472;-69
2021/07/21 09:25:42;;;;;;;12.50;7.10;;;;;;;23.48;65.58;99092.92;1670833;82;21059;-70
2021/07/21 09:28:10;;;;;;;13.80;6.67;;;;;;;23.52;63.81;99085.57;1700183;84;21411;-69
2021/07/21 09:30:43;;;;;;;10.25;5.90;;;;;;;23.55;63.95;99098.62;1727420;82;21004;-74
2021/07/21 09:33:14;;;;;;;8.53;7.12;;;;;;;23.62;64.25;99106.47;1750204;81;20975;-73
2021/07/21 09:35:51;;;;;;;12.43;7.25;;;;;;;23.67;63.75;99099.92;1750225;81;21035;-72
2021/07/21 09:38:21;;;;;;;7.03;6.33;;;;;;;23.73;63.21;99097.15;1732148;81;21114;-73
2021/07/21 09:40:52;;;;;;;9.23;6.78;;;;;;;23.75;63.39;99097.01;1701406;82;21078;-73
2021/07/21 09:43:22;;;;;;;8.58;5.97;;;;;;;23.81;64.63;99093.44;1750021;82;21538;-73
2021/07/21 09:45:48;;;;;;;7.72;6.92;;;;;;;23.93;64.45;99101.63;1750182;81;21011;-71
2021/07/21 09:48:18;;;;;;;10.93;6.10;;;;;;;24.00;64.57;99102.36;1720046;82;21018;-72
2021/07/21 09:50:46;;;;;;;11.00;6.22;;;;;;;24.01;64.29;99099.84;1719910;82;21069;-68
2021/07/21 09:53:14;;;;;;;8.48;6.20;;;;;;;24.06;64.68;99090.77;1749977;81;21070;-70
2021/07/21 09:55:43;;;;;;;8.60;6.17;;;;;;;24.11;64.56;99086.39;1750159;81;21740;-72
2021/07/21 09:58:16;;;;;;;14.55;6.90;;;;;;;24.14;63.21;99085.67;1749325;81;21621;-70
2021/07/21 10:00:46;;;;;;;10.58;6.05;;;;;;;24.18;62.96;99078.34;1715425;82;21507;-70
2021/07/21 10:03:20;;;;;;;6.72;5.25;;;;;;;24.24;63.49;99089.86;1739063;81;20932;-70
2021/07/21 10:06:10;;;;;;;7.42;5.75;;;;;;;24.32;63.72;99086.13;1713425;81;21171;-69
2021/07/21 10:08:44;;;;;;;9.80;8.35;;;;;;;24.40;62.20;99068.67;1700220;83;21575;-70
2021/07/21 10:11:31;;;;;;;8.33;6.70;;;;;;;24.49;60.63;99076.73;1716735;82;21042;-69
2021/07/21 10:14:09;;;;;;;9.85;6.58;;;;;;;24.58;60.26;99079.51;1744131;82;21056;-70
2021/07/21 10:16:47;;;;;;;8.90;7.67;;;;;;;24.65;59.52;99078.28;1692190;83;21549;-68
2021/07/21 10:19:30;;;;;;;7.83;6.58;;;;;;;24.73;60.35;99074.56;1734664;82;21173;-72
2021/07/21 10:22:01;;;;;;;9.13;6.87;;;;;;;24.91;59.10;99074.17;1750138;81;22243;-70
2021/07/21 10:24:32;;;;;;;10.18;6.08;;;;;;;24.95;57.67;99082.72;1750505;81;20935;-70
2021/07/21 10:26:59;;;;;;;6.92;6.22;;;;;;;24.94;58.19;99074.24;1721042;82;21506;-70
2021/07/21 10:29:25;;;;;;;9.78;5.97;;;;;;;24.95;58.00;99068.16;1744464;82;21531;-75
2021/07/21 10:31:52;;;;;;;12.73;5.62;;;;;;;24.91;57.91;99079.10;1727111;82;21089;-72
2021/07/21 10:34:21;;;;;;;8.58;6.17;;;;;;;24.89;56.88;99076.50;1720513;82;21000;-75
2021/07/21 10:36:48;;;;;;;10.75;6.58;;;;;;;24.85;56.41;99066.75;1750400;81;21054;-70
2021/07/21 10:39:25;;;;;;;7.28;5.60;;;;;;;24.82;55.62;99062.55;1750003;82;21316;-74
2021/07/21 10:41:51;;;;;;;8.18;6.12;;;;;;;24.82;56.50;99063.92;1718555;82;21582;-70
2021/07/21 10:44:20;;;;;;;6.70;6.05;;;;;;;24.81;56.13;99062.32;1710783;80;21278;-70
2021/07/21 10:46:54;;;;;;;7.12;5.80;;;;;;;24.78;56.85;99055.60;1747376;82;20964;-70
2021/07/21 10:49:44;;;;;;;6.92;5.78;;;;;;;24.79;56.89;99066.03;1715362;82;21058;-73
2021/07/21 11:00:42;;;;;;;7.65;5.90;;;;;;;24.67;59.74;99066.36;1725666;83;34583;-70
2021/07/21 11:03:24;;;;;;;11.00;6.42;;;;;;;24.65;59.57;99070.63;1729575;83;21583;-68
2021/07/21 11:06:05;;;;;;;6.55;5.35;;;;;;;24.71;59.98;99060.92;1680693;84;21521;-70
2021/07/21 11:08:32;;;;;;;8.80;5.37;;;;;;;24.88;59.55;99041.31;1654541;86;21028;-70
2021/07/21 11:11:05;;;;;;;6.70;5.72;;;;;;;25.09;55.58;99056.08;1715678;83;21193;-72
2021/07/21 11:13:36;;;;;;;6.83;5.65;;;;;;;25.19;53.70;99051.38;1669926;84;21505;-69
2021/07/21 11:16:08;;;;;;;8.80;5.22;;;;;;;25.19;52.86;99070.07;1712206;83;20987;-69
2021/07/21 11:18:44;;;;;;;5.42;4.92;;;;;;;25.17;53.51;99082.62;1727617;83;21897;-70
2021/07/21 11:21:15;;;;;;;9.90;5.70;;;;;;;25.19;52.96;99050.00;1726119;83;21091;-69
2021/07/21 11:23:58;;;;;;;7.15;5.15;;;;;;;25.22;53.83;99056.75;1728643;83;21229;-71
2021/07/21 11:26:35;;;;;;;8.53;5.37;;;;;;;25.18;53.19;99062.16;1724955;83;20981;-72
2021/07/21 11:29:30;;;;;;;7.87;5.25;;;;;;;25.14;53.21;99062.67;1726724;83;20963;-70
2021/07/21 11:31:58;;;;;;;6.53;5.55;;;;;;;25.13;53.81;99056.98;1727381;83;21062;-71
2021/07/21 11:34:29;;;;;;;7.92;5.37;;;;;;;25.24;54.78;99058.55;1693576;84;21063;-71
2021/07/21 11:37:06;;;;;;;7.95;5.65;;;;;;;25.34;54.97;99062.90;1679067;83;21778;-71
2021/07/21 11:39:57;;;;;;;9.00;5.90;;;;;;;25.35;55.15;99067.25;1690469;84;21076;-71
2021/07/21 11:42:38;;;;;;;9.28;6.83;;;;;;;25.32;55.27;99061.68;1690438;84;21569;-73
2021/07/21 11:45:11;;;;;;;10.38;6.30;;;;;;;25.38;53.15;99065.72;1700079;84;20944;-71
2021/07/21 11:47:47;;;;;;;7.05;6.00;;;;;;;25.39;53.38;99058.48;1719493;83;21071;-70